sensor_id;sensor_type;location;lat;lon;timestamp;pressure;altitude;pressure_sealevel;temperature
73894;BMP280;62699;50.534;12.784;2022-12-10T00:05:00;95151.72;;;-0.73
73894;BMP280;62699;50.534;12.784;2022-12-10T00:10:00;95146.13;;;-0.75
73894;BMP280;62699;50.534;12.784;2022-12-10T00:15:00;95145.53;;;-0.79
73894;BMP280;62699;50.534;12.784;2022-12-10T00:20:01;95145.97;;;-0.81
73894;BMP280;62699;50.534;12.784;2022-12-10T00:25:02;95140.84;;;-0.84
73894;BMP280;62699;50.534;12.784;2022-12-10T00:30:02;95140.25;;;-0.88
73894;BMP280;62699;50.534;12.784;2022-12-10T00:35:03;95144.38;;;-0.87
73894;BMP280;62699;50.534;12.784;2022-12-10T00:40:04;95138.22;;;-0.84
73894;BMP280;62699;50.534;12.784;2022-12-10T00:45:05;95147.19;;;-0.82
73894;BMP280;62699;50.534;12.784;2022-12-10T00:50:05;95144.53;;;-0.82
73894;BMP280;62699;50.534;12.784;2022-12-10T00:55:07;95146.44;;;-0.82
73894;BMP280;62699;50.534;12.784;2022-12-10T01:00:12;95148.63;;;-0.81
73894;BMP280;62699;50.534;12.784;2022-12-10T01:05:13;95160.81;;;-0.83
73894;BMP280;62699;50.534;12.784;2022-12-10T01:10:13;95151.72;;;-0.82
73894;BMP280;62699;50.534;12.784;2022-12-10T01:15:13;95142.78;;;-0.85
73894;BMP280;62699;50.534;12.784;2022-12-10T01:20:14;95149.66;;;-0.87
73894;BMP280;62699;50.534;12.784;2022-12-10T01:25:14;95152.00;;;-0.89
73894;BMP280;62699;50.534;12.784;2022-12-10T01:30:21;95150.09;;;-0.89
73894;BMP280;62699;50.534;12.784;2022-12-10T01:35:22;95147.88;;;-0.90
73894;BMP280;62699;50.534;12.784;2022-12-10T01:40:22;95153.47;;;-0.88
73894;BMP280;62699;50.534;12.784;2022-12-10T01:45:22;95151.13;;;-0.86
73894;BMP280;62699;50.534;12.784;2022-12-10T01:50:22;95162.00;;;-0.84
73894;BMP280;62699;50.534;12.784;2022-12-10T01:55:46;95162.56;;;-0.80
73894;BMP280;62699;50.534;12.784;2022-12-10T02:06:04;95166.38;;;-0.81
73894;BMP280;62699;50.534;12.784;2022-12-10T02:11:17;95170.50;;;-0.80
73894;BMP280;62699;50.534;12.784;2022-12-10T02:16:31;95161.84;;;-0.81
73894;BMP280;62699;50.534;12.784;2022-12-10T02:21:37;95154.63;;;-0.80
73894;BMP280;62699;50.534;12.784;2022-12-10T02:32:26;95181.06;;;-0.80
73894;BMP280;62699;50.534;12.784;2022-12-10T02:37:04;95174.91;;;-0.77
73894;BMP280;62699;50.534;12.784;2022-12-10T02:42:07;95189.16;;;-0.75
73894;BMP280;62699;50.534;12.784;2022-12-10T02:47:09;95184.91;;;-0.72
73894;BMP280;62699;50.534;12.784;2022-12-10T02:52:13;95183.69;;;-0.71
73894;BMP280;62699;50.534;12.784;2022-12-10T03:02:59;95181.38;;;-0.69
73894;BMP280;62699;50.534;12.784;2022-12-10T03:08:35;95174.47;;;-0.66
73894;BMP280;62699;50.534;12.784;2022-12-10T03:18:52;95176.06;;;-0.69
73894;BMP280;62699;50.534;12.784;2022-12-10T03:23:55;95171.38;;;-0.74
73894;BMP280;62699;50.534;12.784;2022-12-10T03:29:03;95166.97;;;-0.77
73894;BMP280;62699;50.534;12.784;2022-12-10T03:34:05;95169.91;;;-0.84
73894;BMP280;62699;50.534;12.784;2022-12-10T03:39:07;95170.06;;;-0.88
73894;BMP280;62699;50.534;12.784;2022-12-10T03:44:07;95174.28;;;-0.90
73894;BMP280;62699;50.534;12.784;2022-12-10T03:49:09;95179.59;;;-0.90
73894;BMP280;62699;50.534;12.784;2022-12-10T03:54:10;95174.28;;;-0.90
73894;BMP280;62699;50.534;12.784;2022-12-10T03:59:10;95176.94;;;-0.90
73894;BMP280;62699;50.534;12.784;2022-12-10T04:04:11;95179.59;;;-0.90
73894;BMP280;62699;50.534;12.784;2022-12-10T04:09:13;95183.41;;;-0.91
73894;BMP280;62699;50.534;12.784;2022-12-10T04:14:13;95176.22;;;-0.91
73894;BMP280;62699;50.534;12.784;2022-12-10T04:19:32;95172.84;;;-0.91
73894;BMP280;62699;50.534;12.784;2022-12-10T04:24:34;95162.00;;;-0.93
73894;BMP280;62699;50.534;12.784;2022-12-10T04:29:54;95160.09;;;-0.93
73894;BMP280;62699;50.534;12.784;2022-12-10T04:34:55;95159.06;;;-0.95
73894;BMP280;62699;50.534;12.784;2022-12-10T04:39:56;95156.84;;;-0.97
73894;BMP280;62699;50.534;12.784;2022-12-10T04:44:56;95153.91;;;-0.99
73894;BMP280;62699;50.534;12.784;2022-12-10T04:49:57;95152.88;;;-1.01
73894;BMP280;62699;50.534;12.784;2022-12-10T04:54:57;95150.09;;;-1.07
73894;BMP280;62699;50.534;12.784;2022-12-10T04:59:57;95143.75;;;-1.10
73894;BMP280;62699;50.534;12.784;2022-12-10T05:04:58;95152.28;;;-1.15
73894;BMP280;62699;50.534;12.784;2022-12-10T05:09:58;95148.59;;;-1.17
73894;BMP280;62699;50.534;12.784;2022-12-10T05:14:58;95136.44;;;-1.24
73894;BMP280;62699;50.534;12.784;2022-12-10T05:19:59;95143.13;;;-1.32
73894;BMP280;62699;50.534;12.784;2022-12-10T05:24:59;95146.34;;;-1.37
73894;BMP280;62699;50.534;12.784;2022-12-10T05:30:00;95154.91;;;-1.33
73894;BMP280;62699;50.534;12.784;2022-12-10T05:35:00;95162.66;;;-1.29
73894;BMP280;62699;50.534;12.784;2022-12-10T05:40:01;95169.44;;;-1.19
73894;BMP280;62699;50.534;12.784;2022-12-10T05:45:01;95176.78;;;-1.14
73894;BMP280;62699;50.534;12.784;2022-12-10T05:50:02;95189.25;;;-1.05
73894;BMP280;62699;50.534;12.784;2022-12-10T05:55:02;95189.56;;;-1.03
73894;BMP280;62699;50.534;12.784;2022-12-10T06:00:04;95198.38;;;-0.97
73894;BMP280;62699;50.534;12.784;2022-12-10T06:05:05;95194.56;;;-0.96
73894;BMP280;62699;50.534;12.784;2022-12-10T06:10:05;95197.50;;;-0.94
73894;BMP280;62699;50.534;12.784;2022-12-10T06:15:06;95209.22;;;-0.95
73894;BMP280;62699;50.534;12.784;2022-12-10T06:20:07;95204.38;;;-0.97
73894;BMP280;62699;50.534;12.784;2022-12-10T06:25:07;95204.69;;;-0.95
73894;BMP280;62699;50.534;12.784;2022-12-10T06:30:09;95216.13;;;-0.98
73894;BMP280;62699;50.534;12.784;2022-12-10T06:35:10;95218.31;;;-0.96
73894;BMP280;62699;50.534;12.784;2022-12-10T06:40:19;95219.78;;;-0.95
73894;BMP280;62699;50.534;12.784;2022-12-10T06:45:19;95221.84;;;-0.90
73894;BMP280;62699;50.534;12.784;2022-12-10T06:50:20;95218.03;;;-0.89
73894;BMP280;62699;50.534;12.784;2022-12-10T06:55:20;95219.50;;;-0.88
73894;BMP280;62699;50.534;12.784;2022-12-10T07:00:20;95222.88;;;-0.88
73894;BMP280;62699;50.534;12.784;2022-12-10T07:05:21;95215.25;;;-0.86
73894;BMP280;62699;50.534;12.784;2022-12-10T07:10:21;95225.09;;;-0.86
73894;BMP280;62699;50.534;12.784;2022-12-10T07:15:22;95237.88;;;-0.85
73894;BMP280;62699;50.534;12.784;2022-12-10T07:20:23;95228.63;;;-0.80
73894;BMP280;62699;50.534;12.784;2022-12-10T07:25:24;95232.72;;;-0.79
73894;BMP280;62699;50.534;12.784;2022-12-10T07:30:24;95241.25;;;-0.75
73894;BMP280;62699;50.534;12.784;2022-12-10T07:35:24;95253.59;;;-0.72
73894;BMP280;62699;50.534;12.784;2022-12-10T07:40:26;95255.34;;;-0.69
73894;BMP280;62699;50.534;12.784;2022-12-10T07:45:26;95259.16;;;-0.61
73894;BMP280;62699;50.534;12.784;2022-12-10T07:50:27;95259.47;;;-0.59
73894;BMP280;62699;50.534;12.784;2022-12-10T07:55:27;95257.13;;;-0.57
73894;BMP280;62699;50.534;12.784;2022-12-10T08:00:27;95255.81;;;-0.52
73894;BMP280;62699;50.534;12.784;2022-12-10T08:05:28;95258.16;;;-0.45
73894;BMP280;62699;50.534;12.784;2022-12-10T08:10:28;95244.34;;;-0.40
73894;BMP280;62699;50.534;12.784;2022-12-10T08:15:29;95244.69;;;-0.29
73894;BMP280;62699;50.534;12.784;2022-12-10T08:20:29;95246.00;;;-0.15
73894;BMP280;62699;50.534;12.784;2022-12-10T08:25:37;95251.13;;;-0.03
73894;BMP280;62699;50.534;12.784;2022-12-10T08:30:37;95256.84;;;0.05
73894;BMP280;62699;50.534;12.784;2022-12-10T08:35:37;95256.53;;;0.12
73894;BMP280;62699;50.534;12.784;2022-12-10T08:40:39;95270.66;;;0.18
73894;BMP280;62699;50.534;12.784;2022-12-10T08:45:52;95273.88;;;0.22
73894;BMP280;62699;50.534;12.784;2022-12-10T08:50:52;95277.88;;;0.09
73894;BMP280;62699;50.534;12.784;2022-12-10T08:56:02;95280.34;;;0.12
73894;BMP280;62699;50.534;12.784;2022-12-10T09:01:10;95293.59;;;0.12
73894;BMP280;62699;50.534;12.784;2022-12-10T09:06:15;95297.88;;;0.10
73894;BMP280;62699;50.534;12.784;2022-12-10T09:11:28;95293.00;;;0.08
73894;BMP280;62699;50.534;12.784;2022-12-10T09:16:33;95294.50;;;0.00
73894;BMP280;62699;50.534;12.784;2022-12-10T09:21:35;95294.75;;;0.02
73894;BMP280;62699;50.534;12.784;2022-12-10T09:26:35;95296.25;;;0.03
73894;BMP280;62699;50.534;12.784;2022-12-10T09:31:36;95297.72;;;0.04
73894;BMP280;62699;50.534;12.784;2022-12-10T09:36:36;95292.41;;;0.04
73894;BMP280;62699;50.534;12.784;2022-12-10T09:41:53;95294.63;;;0.06
73894;BMP280;62699;50.534;12.784;2022-12-10T09:46:58;95293.28;;;0.01
73894;BMP280;62699;50.534;12.784;2022-12-10T09:52:02;95283.75;;;0.04
73894;BMP280;62699;50.534;12.784;2022-12-10T09:57:05;95283.28;;;0.14
73894;BMP280;62699;50.534;12.784;2022-12-10T10:07:24;95278.38;;;0.40
73894;BMP280;62699;50.534;12.784;2022-12-10T10:12:30;95270.88;;;0.38
73894;BMP280;62699;50.534;12.784;2022-12-10T10:17:35;95281.59;;;0.44
73894;BMP280;62699;50.534;12.784;2022-12-10T10:22:36;95278.03;;;0.56
73894;BMP280;62699;50.534;12.784;2022-12-10T10:27:36;95286.44;;;0.55
73894;BMP280;62699;50.534;12.784;2022-12-10T10:37:41;95281.41;;;0.66
73894;BMP280;62699;50.534;12.784;2022-12-10T10:42:43;95285.63;;;0.72
73894;BMP280;62699;50.534;12.784;2022-12-10T10:47:45;95282.72;;;0.70
73894;BMP280;62699;50.534;12.784;2022-12-10T10:52:45;95283.75;;;0.64
73894;BMP280;62699;50.534;12.784;2022-12-10T10:57:45;95286.25;;;0.67
73894;BMP280;62699;50.534;12.784;2022-12-10T11:02:46;95281.97;;;0.70
73894;BMP280;62699;50.534;12.784;2022-12-10T11:07:46;95288.09;;;0.85
73894;BMP280;62699;50.534;12.784;2022-12-10T11:18:23;95287.31;;;0.52
73894;BMP280;62699;50.534;12.784;2022-12-10T11:23:28;95278.50;;;0.46
73894;BMP280;62699;50.534;12.784;2022-12-10T11:34:04;95283.13;;;0.78
73894;BMP280;62699;50.534;12.784;2022-12-10T11:39:32;95281.81;;;1.06
73894;BMP280;62699;50.534;12.784;2022-12-10T11:44:43;95263.06;;;1.19
73894;BMP280;62699;50.534;12.784;2022-12-10T11:49:52;95265.50;;;1.32
73894;BMP280;62699;50.534;12.784;2022-12-10T11:55:18;95259.03;;;1.24
73894;BMP280;62699;50.534;12.784;2022-12-10T12:00:23;95260.22;;;1.23
73894;BMP280;62699;50.534;12.784;2022-12-10T12:05:41;95261.44;;;1.36
73894;BMP280;62699;50.534;12.784;2022-12-10T12:10:47;95260.31;;;1.04
73894;BMP280;62699;50.534;12.784;2022-12-10T12:15:56;95265.56;;;0.48
73894;BMP280;62699;50.534;12.784;2022-12-10T12:20:59;95271.94;;;0.32
73894;BMP280;62699;50.534;12.784;2022-12-10T12:26:16;95280.50;;;0.27
73894;BMP280;62699;50.534;12.784;2022-12-10T12:31:40;95283.31;;;0.05
73894;BMP280;62699;50.534;12.784;2022-12-10T12:36:41;95284.50;;;-0.14
73894;BMP280;62699;50.534;12.784;2022-12-10T12:42:12;95283.91;;;-0.27
73894;BMP280;62699;50.534;12.784;2022-12-10T12:52:56;95278.44;;;-0.51
73894;BMP280;62699;50.534;12.784;2022-12-10T13:03:41;95282.09;;;-0.58
73894;BMP280;62699;50.534;12.784;2022-12-10T13:08:47;95283.09;;;-0.64
73894;BMP280;62699;50.534;12.784;2022-12-10T13:29:55;95295.88;;;-0.72
73894;BMP280;62699;50.534;12.784;2022-12-10T13:35:16;95300.25;;;-0.69
73894;BMP280;62699;50.534;12.784;2022-12-10T13:46:23;95318.63;;;-0.65
73894;BMP280;62699;50.534;12.784;2022-12-10T13:51:36;95328.00;;;-0.74
73894;BMP280;62699;50.534;12.784;2022-12-10T13:56:43;95327.28;;;-0.74
73894;BMP280;62699;50.534;12.784;2022-12-10T14:02:03;95304.97;;;-0.73
73894;BMP280;62699;50.534;12.784;2022-12-10T14:07:12;95309.81;;;-0.71
73894;BMP280;62699;50.534;12.784;2022-12-10T14:12:17;95330.22;;;-0.72
73894;BMP280;62699;50.534;12.784;2022-12-10T14:17:20;95339.31;;;-0.73
73894;BMP280;62699;50.534;12.784;2022-12-10T14:22:30;95352.22;;;-0.75
73894;BMP280;62699;50.534;12.784;2022-12-10T14:27:31;95345.59;;;-0.80
73894;BMP280;62699;50.534;12.784;2022-12-10T14:32:37;95341.34;;;-0.77
73894;BMP280;62699;50.534;12.784;2022-12-10T14:37:41;95343.53;;;-0.85
73894;BMP280;62699;50.534;12.784;2022-12-10T14:42:42;95353.38;;;-0.85
73894;BMP280;62699;50.534;12.784;2022-12-10T14:47:42;95354.81;;;-0.93
73894;BMP280;62699;50.534;12.784;2022-12-10T14:52:49;95363.31;;;-0.89
73894;BMP280;62699;50.534;12.784;2022-12-10T14:58:01;95355.22;;;-0.95
73894;BMP280;62699;50.534;12.784;2022-12-10T15:03:10;95351.44;;;-0.94
73894;BMP280;62699;50.534;12.784;2022-12-10T15:08:15;95360.09;;;-0.93
73894;BMP280;62699;50.534;12.784;2022-12-10T15:13:23;95372.41;;;-0.90
73894;BMP280;62699;50.534;12.784;2022-12-10T15:18:31;95389.44;;;-0.91
73894;BMP280;62699;50.534;12.784;2022-12-10T15:23:34;95391.78;;;-0.93
73894;BMP280;62699;50.534;12.784;2022-12-10T15:28:37;95403.94;;;-0.96
73894;BMP280;62699;50.534;12.784;2022-12-10T15:34:06;95409.09;;;-0.92
73894;BMP280;62699;50.534;12.784;2022-12-10T15:39:18;95404.38;;;-0.97
73894;BMP280;62699;50.534;12.784;2022-12-10T15:49:25;95420.22;;;-0.97
73894;BMP280;62699;50.534;12.784;2022-12-10T15:54:33;95437.84;;;-0.94
73894;BMP280;62699;50.534;12.784;2022-12-10T15:59:34;95431.06;;;-1.04
73894;BMP280;62699;50.534;12.784;2022-12-10T16:04:34;95434.84;;;-1.05
73894;BMP280;62699;50.534;12.784;2022-12-10T16:09:34;95445.00;;;-1.04
73894;BMP280;62699;50.534;12.784;2022-12-10T16:14:35;95444.81;;;-1.10
73894;BMP280;62699;50.534;12.784;2022-12-10T16:19:36;95437.75;;;-1.13
73894;BMP280;62699;50.534;12.784;2022-12-10T16:24:37;95437.44;;;-1.15
73894;BMP280;62699;50.534;12.784;2022-12-10T16:29:37;95440.50;;;-1.16
73894;BMP280;62699;50.534;12.784;2022-12-10T16:34:38;95436.50;;;-1.21
73894;BMP280;62699;50.534;12.784;2022-12-10T16:39:39;95441.19;;;-1.25
73894;BMP280;62699;50.534;12.784;2022-12-10T16:44:41;95436.88;;;-1.31
73894;BMP280;62699;50.534;12.784;2022-12-10T16:49:41;95444.91;;;-1.35
73894;BMP280;62699;50.534;12.784;2022-12-10T16:54:42;95433.31;;;-1.37
73894;BMP280;62699;50.534;12.784;2022-12-10T16:59:42;95440.47;;;-1.38
73894;BMP280;62699;50.534;12.784;2022-12-10T17:04:43;95439.31;;;-1.37
73894;BMP280;62699;50.534;12.784;2022-12-10T17:09:44;95434.03;;;-1.37
73894;BMP280;62699;50.534;12.784;2022-12-10T17:14:44;95444.09;;;-1.44
73894;BMP280;62699;50.534;12.784;2022-12-10T17:19:46;95439.44;;;-1.40
73894;BMP280;62699;50.534;12.784;2022-12-10T17:24:46;95437.66;;;-1.43
73894;BMP280;62699;50.534;12.784;2022-12-10T17:29:48;95432.06;;;-1.46
73894;BMP280;62699;50.534;12.784;2022-12-10T17:34:58;95426.72;;;-1.55
73894;BMP280;62699;50.534;12.784;2022-12-10T17:39:59;95442.63;;;-1.46
73894;BMP280;62699;50.534;12.784;2022-12-10T17:44:59;95436.19;;;-1.44
73894;BMP280;62699;50.534;12.784;2022-12-10T17:50:01;95451.72;;;-1.47
73894;BMP280;62699;50.534;12.784;2022-12-10T17:55:02;95448.66;;;-1.45
73894;BMP280;62699;50.534;12.784;2022-12-10T18:00:10;95453.63;;;-1.47
73894;BMP280;62699;50.534;12.784;2022-12-10T18:05:12;95449.00;;;-1.56
73894;BMP280;62699;50.534;12.784;2022-12-10T18:10:22;95447.31;;;-1.62
73894;BMP280;62699;50.534;12.784;2022-12-10T18:15:25;95467.16;;;-1.58
73894;BMP280;62699;50.534;12.784;2022-12-10T18:25:28;95475.31;;;-1.65
73894;BMP280;62699;50.534;12.784;2022-12-10T18:30:30;95477.75;;;-1.70
73894;BMP280;62699;50.534;12.784;2022-12-10T18:35:30;95490.63;;;-1.72
73894;BMP280;62699;50.534;12.784;2022-12-10T18:40:32;95491.88;;;-1.64
73894;BMP280;62699;50.534;12.784;2022-12-10T18:45:32;95485.13;;;-1.65
73894;BMP280;62699;50.534;12.784;2022-12-10T18:50:33;95485.56;;;-1.67
73894;BMP280;62699;50.534;12.784;2022-12-10T18:55:33;95479.13;;;-1.66
73894;BMP280;62699;50.534;12.784;2022-12-10T19:00:33;95469.50;;;-1.72
73894;BMP280;62699;50.534;12.784;2022-12-10T19:05:35;95496.13;;;-1.67
73894;BMP280;62699;50.534;12.784;2022-12-10T19:10:35;95482.91;;;-1.67
73894;BMP280;62699;50.534;12.784;2022-12-10T19:15:35;95493.56;;;-1.70
73894;BMP280;62699;50.534;12.784;2022-12-10T19:20:36;95488.19;;;-1.67
73894;BMP280;62699;50.534;12.784;2022-12-10T19:25:36;95478.91;;;-1.71
73894;BMP280;62699;50.534;12.784;2022-12-10T19:30:37;95489.19;;;-1.73
73894;BMP280;62699;50.534;12.784;2022-12-10T19:35:37;95480.31;;;-1.79
73894;BMP280;62699;50.534;12.784;2022-12-10T19:40:39;95484.00;;;-1.77
73894;BMP280;62699;50.534;12.784;2022-12-10T19:45:39;95487.06;;;-1.78
73894;BMP280;62699;50.534;12.784;2022-12-10T19:50:39;95482.84;;;-1.76
73894;BMP280;62699;50.534;12.784;2022-12-10T19:55:40;95484.31;;;-1.75
73894;BMP280;62699;50.534;12.784;2022-12-10T20:00:40;95474.06;;;-1.73
73894;BMP280;62699;50.534;12.784;2022-12-10T20:06:09;95481.88;;;-1.69
73894;BMP280;62699;50.534;12.784;2022-12-10T20:11:10;95468.91;;;-1.76
73894;BMP280;62699;50.534;12.784;2022-12-10T20:16:22;95465.22;;;-1.79
73894;BMP280;62699;50.534;12.784;2022-12-10T20:21:23;95469.84;;;-1.83
73894;BMP280;62699;50.534;12.784;2022-12-10T20:26:30;95479.88;;;-1.78
73894;BMP280;62699;50.534;12.784;2022-12-10T20:31:31;95478.81;;;-1.80
73894;BMP280;62699;50.534;12.784;2022-12-10T20:36:31;95484.53;;;-1.82
73894;BMP280;62699;50.534;12.784;2022-12-10T20:41:43;95487.06;;;-1.78
73894;BMP280;62699;50.534;12.784;2022-12-10T20:46:44;95492.75;;;-1.80
73894;BMP280;62699;50.534;12.784;2022-12-10T20:51:45;95473.03;;;-1.88
73894;BMP280;62699;50.534;12.784;2022-12-10T20:56:46;95479.38;;;-1.86
73894;BMP280;62699;50.534;12.784;2022-12-10T21:01:46;95484.09;;;-1.80
73894;BMP280;62699;50.534;12.784;2022-12-10T21:06:46;95480.72;;;-1.81
73894;BMP280;62699;50.534;12.784;2022-12-10T21:11:47;95482.63;;;-1.82
73894;BMP280;62699;50.534;12.784;2022-12-10T21:16:48;95478.41;;;-1.79
73894;BMP280;62699;50.534;12.784;2022-12-10T21:21:49;95480.41;;;-1.83
73894;BMP280;62699;50.534;12.784;2022-12-10T21:26:51;95480.63;;;-1.90
73894;BMP280;62699;50.534;12.784;2022-12-10T21:31:52;95472.59;;;-1.87
73894;BMP280;62699;50.534;12.784;2022-12-10T21:36:52;95478.09;;;-1.81
73894;BMP280;62699;50.534;12.784;2022-12-10T21:41:53;95477.47;;;-1.85
73894;BMP280;62699;50.534;12.784;2022-12-10T21:47:12;95475.25;;;-1.87
73894;BMP280;62699;50.534;12.784;2022-12-10T21:52:13;95483.16;;;-1.87
73894;BMP280;62699;50.534;12.784;2022-12-10T21:57:16;95471.47;;;-1.86
73894;BMP280;62699;50.534;12.784;2022-12-10T22:02:16;95474.91;;;-1.89
73894;BMP280;62699;50.534;12.784;2022-12-10T22:07:17;95472.28;;;-1.89
73894;BMP280;62699;50.534;12.784;2022-12-10T22:12:17;95467.00;;;-1.89
73894;BMP280;62699;50.534;12.784;2022-12-10T22:17:28;95474.72;;;-1.94
73894;BMP280;62699;50.534;12.784;2022-12-10T22:22:28;95469.56;;;-1.98
73894;BMP280;62699;50.534;12.784;2022-12-10T22:27:29;95477.91;;;-1.99
73894;BMP280;62699;50.534;12.784;2022-12-10T22:32:32;95467.69;;;-2.10
73894;BMP280;62699;50.534;12.784;2022-12-10T22:37:32;95470.13;;;-2.15
73894;BMP280;62699;50.534;12.784;2022-12-10T22:42:34;95469.38;;;-2.16
73894;BMP280;62699;50.534;12.784;2022-12-10T22:47:35;95471.59;;;-2.14
73894;BMP280;62699;50.534;12.784;2022-12-10T22:52:35;95470.88;;;-2.15
73894;BMP280;62699;50.534;12.784;2022-12-10T22:57:36;95472.44;;;-2.17
73894;BMP280;62699;50.534;12.784;2022-12-10T23:02:36;95473.91;;;-2.16
73894;BMP280;62699;50.534;12.784;2022-12-10T23:07:37;95465.25;;;-2.17
73894;BMP280;62699;50.534;12.784;2022-12-10T23:12:38;95460.09;;;-2.21
73894;BMP280;62699;50.534;12.784;2022-12-10T23:17:57;95464.44;;;-2.14
73894;BMP280;62699;50.534;12.784;2022-12-10T23:22:57;95462.94;;;-2.15
73894;BMP280;62699;50.534;12.784;2022-12-10T23:27:58;95458.94;;;-2.20
73894;BMP280;62699;50.534;12.784;2022-12-10T23:32:58;95459.91;;;-2.26
73894;BMP280;62699;50.534;12.784;2022-12-10T23:37:58;95438.50;;;-2.28
73894;BMP280;62699;50.534;12.784;2022-12-10T23:42:58;95444.94;;;-2.29
73894;BMP280;62699;50.534;12.784;2022-12-10T23:47:59;95438.16;;;-2.30
73894;BMP280;62699;50.534;12.784;2022-12-10T23:53:00;95444.81;;;-2.26
73894;BMP280;62699;50.534;12.784;2022-12-10T23:58:00;95442.06;;;-2.35
